Eugene, Oregon
Current Conditions -  °F | °C
As of 11:54 PM on Thursday 30 Oct 2014 (Local Time) from KEUG Reporting Station
Light Rain Light Rain  
Wind Chill: 60°   Ceiling: 4900
Heat Index: 60°   Visibility: 10mi
Dew Point: 55°   Wind: 9mph
Humidity: 83%   Direction: 140°SE
Pressure: 29.76"   Gusts: NA
Location:  44.05°N, 123.08°W
Report Text: KEUG 310654Z AUTO 14008KT 10SM -RA SCT033 BKN049 OVC085 16/13 A2976 RMK AO2 CIG 029 RNW 34 SLP078 P0001 T01560128
Loading
Personal Weather Stations






























Interactive Weather Map New forecast layout! Learn more

10-Day Weather Forecast

Advertisements
Track Severe Weather on mobile